sensor_id;sensor_type;location;lat;lon;timestamp;temperature;humidity
75931;DHT22;64609;47.052;15.462;2023-06-01T00:01:44;21.80;56.00
75931;DHT22;64609;47.052;15.462;2023-06-01T00:04:10;21.80;56.20
75931;DHT22;64609;47.052;15.462;2023-06-01T00:06:36;21.80;57.30
75931;DHT22;64609;47.052;15.462;2023-06-01T00:09:02;21.80;56.30
75931;DHT22;64609;47.052;15.462;2023-06-01T00:11:28;21.80;56.20
75931;DHT22;64609;47.052;15.462;2023-06-01T00:13:54;21.70;56.20
75931;DHT22;64609;47.052;15.462;2023-06-01T00:16:19;21.70;56.30
75931;DHT22;64609;47.052;15.462;2023-06-01T00:18:45;21.70;56.50
75931;DHT22;64609;47.052;15.462;2023-06-01T00:21:11;21.60;56.60
75931;DHT22;64609;47.052;15.462;2023-06-01T00:23:37;21.60;57.60
75931;DHT22;64609;47.052;15.462;2023-06-01T00:26:06;21.70;56.60
75931;DHT22;64609;47.052;15.462;2023-06-01T00:28:32;21.70;56.60
75931;DHT22;64609;47.052;15.462;2023-06-01T00:30:58;21.70;56.50
75931;DHT22;64609;47.052;15.462;2023-06-01T00:33:24;21.70;56.70
75931;DHT22;64609;47.052;15.462;2023-06-01T00:35:50;21.70;56.70
75931;DHT22;64609;47.052;15.462;2023-06-01T00:38:16;21.60;56.60
75931;DHT22;64609;47.052;15.462;2023-06-01T00:40:42;21.70;56.70
75931;DHT22;64609;47.052;15.462;2023-06-01T00:43:09;21.70;56.70
75931;DHT22;64609;47.052;15.462;2023-06-01T00:45:35;21.70;56.70
75931;DHT22;64609;47.052;15.462;2023-06-01T00:48:01;21.60;56.80
75931;DHT22;64609;47.052;15.462;2023-06-01T00:50:27;21.60;56.80
75931;DHT22;64609;47.052;15.462;2023-06-01T00:52:52;21.60;57.00
75931;DHT22;64609;47.052;15.462;2023-06-01T00:55:20;21.60;57.00
75931;DHT22;64609;47.052;15.462;2023-06-01T00:57:46;21.60;57.10
75931;DHT22;64609;47.052;15.462;2023-06-01T01:00:14;21.50;57.50
75931;DHT22;64609;47.052;15.462;2023-06-01T01:02:41;21.40;57.80
75931;DHT22;64609;47.052;15.462;2023-06-01T01:05:08;21.40;57.90
75931;DHT22;64609;47.052;15.462;2023-06-01T01:10:38;21.30;58.20
75931;DHT22;64609;47.052;15.462;2023-06-01T01:13:20;21.40;58.30
75931;DHT22;64609;47.052;15.462;2023-06-01T01:18:25;21.40;58.20
75931;DHT22;64609;47.052;15.462;2023-06-01T01:20:57;21.40;58.50
75931;DHT22;64609;47.052;15.462;2023-06-01T01:27:01;21.30;58.70
75931;DHT22;64609;47.052;15.462;2023-06-01T01:29:31;21.20;58.70
75931;DHT22;64609;47.052;15.462;2023-06-01T01:31:59;21.20;58.90
75931;DHT22;64609;47.052;15.462;2023-06-01T01:34:27;21.20;59.20
75931;DHT22;64609;47.052;15.462;2023-06-01T01:36:54;21.20;59.30
75931;DHT22;64609;47.052;15.462;2023-06-01T01:39:20;21.20;59.10
75931;DHT22;64609;47.052;15.462;2023-06-01T01:41:46;21.20;60.00
75931;DHT22;64609;47.052;15.462;2023-06-01T01:44:12;21.20;58.80
75931;DHT22;64609;47.052;15.462;2023-06-01T01:47:58;21.10;58.70
75931;DHT22;64609;47.052;15.462;2023-06-01T01:50:07;21.10;58.80
75931;DHT22;64609;47.052;15.462;2023-06-01T01:52:38;21.10;58.70
75931;DHT22;64609;47.052;15.462;2023-06-01T01:55:07;21.10;58.80
75931;DHT22;64609;47.052;15.462;2023-06-01T01:57:34;21.10;58.50
75931;DHT22;64609;47.052;15.462;2023-06-01T02:00:02;21.10;58.60
75931;DHT22;64609;47.052;15.462;2023-06-01T02:02:28;21.10;58.70
75931;DHT22;64609;47.052;15.462;2023-06-01T02:04:54;21.10;58.60
75931;DHT22;64609;47.052;15.462;2023-06-01T02:07:20;21.00;58.60
75931;DHT22;64609;47.052;15.462;2023-06-01T02:09:46;20.90;58.80
75931;DHT22;64609;47.052;15.462;2023-06-01T02:12:12;20.90;58.90
75931;DHT22;64609;47.052;15.462;2023-06-01T02:14:38;20.90;59.00
75931;DHT22;64609;47.052;15.462;2023-06-01T02:17:03;20.90;59.20
75931;DHT22;64609;47.052;15.462;2023-06-01T02:19:31;20.80;59.20
75931;DHT22;64609;47.052;15.462;2023-06-01T02:21:56;20.80;59.20
75931;DHT22;64609;47.052;15.462;2023-06-01T02:24:22;20.80;59.40
75931;DHT22;64609;47.052;15.462;2023-06-01T02:26:48;20.70;59.40
75931;DHT22;64609;47.052;15.462;2023-06-01T02:29:17;20.80;59.50
75931;DHT22;64609;47.052;15.462;2023-06-01T02:31:45;20.80;59.50
75931;DHT22;64609;47.052;15.462;2023-06-01T02:34:11;20.70;59.70
75931;DHT22;64609;47.052;15.462;2023-06-01T02:36:36;20.60;59.90
75931;DHT22;64609;47.052;15.462;2023-06-01T02:39:02;20.60;60.00
75931;DHT22;64609;47.052;15.462;2023-06-01T02:41:28;20.60;60.10
75931;DHT22;64609;47.052;15.462;2023-06-01T02:43:53;20.50;60.00
75931;DHT22;64609;47.052;15.462;2023-06-01T02:46:19;20.50;60.00
75931;DHT22;64609;47.052;15.462;2023-06-01T02:48:45;20.50;60.20
75931;DHT22;64609;47.052;15.462;2023-06-01T02:51:12;20.40;60.30
75931;DHT22;64609;47.052;15.462;2023-06-01T02:53:41;20.30;61.50
75931;DHT22;64609;47.052;15.462;2023-06-01T02:56:07;20.30;60.70
75931;DHT22;64609;47.052;15.462;2023-06-01T02:58:33;20.30;60.80
75931;DHT22;64609;47.052;15.462;2023-06-01T03:00:59;20.20;60.90
75931;DHT22;64609;47.052;15.462;2023-06-01T03:03:25;20.20;61.00
75931;DHT22;64609;47.052;15.462;2023-06-01T03:05:51;20.20;61.00
75931;DHT22;64609;47.052;15.462;2023-06-01T03:08:17;20.20;61.20
75931;DHT22;64609;47.052;15.462;2023-06-01T03:10:43;20.20;61.30
75931;DHT22;64609;47.052;15.462;2023-06-01T03:13:09;20.00;61.40
75931;DHT22;64609;47.052;15.462;2023-06-01T03:15:35;19.90;61.60
75931;DHT22;64609;47.052;15.462;2023-06-01T03:18:03;19.90;61.80
75931;DHT22;64609;47.052;15.462;2023-06-01T03:20:28;19.90;61.80
75931;DHT22;64609;47.052;15.462;2023-06-01T03:22:54;19.90;61.80
75931;DHT22;64609;47.052;15.462;2023-06-01T03:25:20;19.90;61.90
75931;DHT22;64609;47.052;15.462;2023-06-01T03:27:46;19.90;62.00
75931;DHT22;64609;47.052;15.462;2023-06-01T03:30:11;19.80;62.10
75931;DHT22;64609;47.052;15.462;2023-06-01T03:32:38;19.80;62.20
75931;DHT22;64609;47.052;15.462;2023-06-01T03:35:05;19.80;62.10
75931;DHT22;64609;47.052;15.462;2023-06-01T03:37:39;19.80;62.20
75931;DHT22;64609;47.052;15.462;2023-06-01T03:40:06;19.80;62.20
75931;DHT22;64609;47.052;15.462;2023-06-01T03:42:42;19.80;62.30
75931;DHT22;64609;47.052;15.462;2023-06-01T03:45:09;19.80;62.40
75931;DHT22;64609;47.052;15.462;2023-06-01T03:47:35;19.70;62.30
75931;DHT22;64609;47.052;15.462;2023-06-01T03:50:02;19.60;62.40
75931;DHT22;64609;47.052;15.462;2023-06-01T03:52:29;19.60;62.60
75931;DHT22;64609;47.052;15.462;2023-06-01T03:54:59;19.50;62.80
75931;DHT22;64609;47.052;15.462;2023-06-01T03:57:26;19.50;63.00
75931;DHT22;64609;47.052;15.462;2023-06-01T03:59:52;19.50;63.20
75931;DHT22;64609;47.052;15.462;2023-06-01T04:02:18;19.50;63.20
75931;DHT22;64609;47.052;15.462;2023-06-01T04:04:45;19.60;63.30
75931;DHT22;64609;47.052;15.462;2023-06-01T04:07:11;19.60;63.30
75931;DHT22;64609;47.052;15.462;2023-06-01T04:09:43;19.60;63.30
75931;DHT22;64609;47.052;15.462;2023-06-01T04:12:10;19.60;63.30
75931;DHT22;64609;47.052;15.462;2023-06-01T04:14:38;19.70;63.20
75931;DHT22;64609;47.052;15.462;2023-06-01T04:17:05;19.70;63.30
75931;DHT22;64609;47.052;15.462;2023-06-01T04:19:32;19.80;63.70
75931;DHT22;64609;47.052;15.462;2023-06-01T04:21:58;19.80;63.70
75931;DHT22;64609;47.052;15.462;2023-06-01T04:24:23;19.80;63.60
75931;DHT22;64609;47.052;15.462;2023-06-01T04:26:49;19.90;63.50
75931;DHT22;64609;47.052;15.462;2023-06-01T04:29:16;19.90;63.10
75931;DHT22;64609;47.052;15.462;2023-06-01T04:31:45;20.00;63.00
75931;DHT22;64609;47.052;15.462;2023-06-01T04:34:11;20.00;62.80
75931;DHT22;64609;47.052;15.462;2023-06-01T04:36:37;20.10;62.70
75931;DHT22;64609;47.052;15.462;2023-06-01T04:39:07;20.10;62.20
75931;DHT22;64609;47.052;15.462;2023-06-01T04:41:34;20.10;61.90
75931;DHT22;64609;47.052;15.462;2023-06-01T04:44:03;20.20;61.80
75931;DHT22;64609;47.052;15.462;2023-06-01T04:46:32;20.30;61.70
75931;DHT22;64609;47.052;15.462;2023-06-01T04:48:58;20.30;61.50
75931;DHT22;64609;47.052;15.462;2023-06-01T04:51:26;20.30;61.30
75931;DHT22;64609;47.052;15.462;2023-06-01T04:53:53;20.30;61.20
75931;DHT22;64609;47.052;15.462;2023-06-01T04:56:20;20.40;61.00
75931;DHT22;64609;47.052;15.462;2023-06-01T04:58:50;20.40;60.90
75931;DHT22;64609;47.052;15.462;2023-06-01T05:01:16;20.40;61.00
75931;DHT22;64609;47.052;15.462;2023-06-01T05:03:43;20.50;61.00
75931;DHT22;64609;47.052;15.462;2023-06-01T05:06:10;20.50;61.00
75931;DHT22;64609;47.052;15.462;2023-06-01T05:08:39;20.50;61.10
75931;DHT22;64609;47.052;15.462;2023-06-01T05:11:05;20.60;61.10
75931;DHT22;64609;47.052;15.462;2023-06-01T05:13:33;20.60;61.00
75931;DHT22;64609;47.052;15.462;2023-06-01T05:15:59;20.70;61.00
75931;DHT22;64609;47.052;15.462;2023-06-01T05:18:25;20.70;60.80
75931;DHT22;64609;47.052;15.462;2023-06-01T05:20:50;20.70;60.70
75931;DHT22;64609;47.052;15.462;2023-06-01T05:23:17;20.80;60.90
75931;DHT22;64609;47.052;15.462;2023-06-01T05:25:42;20.80;60.90
75931;DHT22;64609;47.052;15.462;2023-06-01T05:28:08;20.80;60.70
75931;DHT22;64609;47.052;15.462;2023-06-01T05:30:33;20.90;60.80
75931;DHT22;64609;47.052;15.462;2023-06-01T05:32:59;20.90;60.80
75931;DHT22;64609;47.052;15.462;2023-06-01T05:35:25;21.00;60.80
75931;DHT22;64609;47.052;15.462;2023-06-01T05:37:50;21.00;61.00
75931;DHT22;64609;47.052;15.462;2023-06-01T05:40:16;21.00;60.90
75931;DHT22;64609;47.052;15.462;2023-06-01T05:42:42;21.10;61.00
75931;DHT22;64609;47.052;15.462;2023-06-01T05:45:08;21.20;60.90
75931;DHT22;64609;47.052;15.462;2023-06-01T05:47:34;21.30;60.70
75931;DHT22;64609;47.052;15.462;2023-06-01T05:50:00;21.40;60.20
75931;DHT22;64609;47.052;15.462;2023-06-01T05:52:25;21.40;59.70
75931;DHT22;64609;47.052;15.462;2023-06-01T05:54:51;21.50;59.30
75931;DHT22;64609;47.052;15.462;2023-06-01T05:57:22;21.70;59.30
75931;DHT22;64609;47.052;15.462;2023-06-01T05:59:47;21.80;59.00
75931;DHT22;64609;47.052;15.462;2023-06-01T06:02:13;21.90;58.60
75931;DHT22;64609;47.052;15.462;2023-06-01T06:04:40;22.10;58.00
75931;DHT22;64609;47.052;15.462;2023-06-01T06:07:06;22.20;57.60
75931;DHT22;64609;47.052;15.462;2023-06-01T06:09:31;22.30;57.30
75931;DHT22;64609;47.052;15.462;2023-06-01T06:11:57;22.40;57.10
75931;DHT22;64609;47.052;15.462;2023-06-01T06:14:23;22.50;56.00
75931;DHT22;64609;47.052;15.462;2023-06-01T06:16:49;22.60;55.60
75931;DHT22;64609;47.052;15.462;2023-06-01T06:19:15;22.70;55.80
75931;DHT22;64609;47.052;15.462;2023-06-01T06:21:42;22.80;55.60
75931;DHT22;64609;47.052;15.462;2023-06-01T06:24:08;22.90;55.40
75931;DHT22;64609;47.052;15.462;2023-06-01T06:26:33;23.10;55.30
75931;DHT22;64609;47.052;15.462;2023-06-01T06:28:59;23.30;55.00
75931;DHT22;64609;47.052;15.462;2023-06-01T06:31:25;23.50;54.70
75931;DHT22;64609;47.052;15.462;2023-06-01T06:33:51;23.60;54.30
75931;DHT22;64609;47.052;15.462;2023-06-01T06:36:16;23.80;54.00
75931;DHT22;64609;47.052;15.462;2023-06-01T06:38:42;23.90;53.20
75931;DHT22;64609;47.052;15.462;2023-06-01T06:41:08;24.00;53.00
75931;DHT22;64609;47.052;15.462;2023-06-01T06:43:34;24.20;52.40
75931;DHT22;64609;47.052;15.462;2023-06-01T06:46:00;24.30;52.30
75931;DHT22;64609;47.052;15.462;2023-06-01T06:48:25;24.50;51.90
75931;DHT22;64609;47.052;15.462;2023-06-01T06:50:51;24.60;50.70
75931;DHT22;64609;47.052;15.462;2023-06-01T06:53:17;24.60;50.30
75931;DHT22;64609;47.052;15.462;2023-06-01T06:55:43;24.70;50.00
75931;DHT22;64609;47.052;15.462;2023-06-01T06:58:10;24.90;49.80
75931;DHT22;64609;47.052;15.462;2023-06-01T07:00:36;25.00;49.80
75931;DHT22;64609;47.052;15.462;2023-06-01T07:03:02;25.20;48.90
75931;DHT22;64609;47.052;15.462;2023-06-01T07:05:29;25.10;48.40
75931;DHT22;64609;47.052;15.462;2023-06-01T07:07:54;25.30;48.40
75931;DHT22;64609;47.052;15.462;2023-06-01T07:10:20;25.30;47.80
75931;DHT22;64609;47.052;15.462;2023-06-01T07:12:46;25.50;47.60
75931;DHT22;64609;47.052;15.462;2023-06-01T07:15:12;25.70;47.50
75931;DHT22;64609;47.052;15.462;2023-06-01T07:17:38;25.80;46.40
75931;DHT22;64609;47.052;15.462;2023-06-01T07:20:04;25.90;45.10
75931;DHT22;64609;47.052;15.462;2023-06-01T07:22:32;25.90;43.20
75931;DHT22;64609;47.052;15.462;2023-06-01T07:24:58;26.00;42.20
75931;DHT22;64609;47.052;15.462;2023-06-01T07:27:24;26.10;42.50
75931;DHT22;64609;47.052;15.462;2023-06-01T07:29:51;26.20;42.90
75931;DHT22;64609;47.052;15.462;2023-06-01T07:32:21;26.20;42.80
75931;DHT22;64609;47.052;15.462;2023-06-01T07:34:47;26.30;42.50
75931;DHT22;64609;47.052;15.462;2023-06-01T07:37:12;26.20;41.60
75931;DHT22;64609;47.052;15.462;2023-06-01T07:39:38;26.20;41.90
75931;DHT22;64609;47.052;15.462;2023-06-01T07:42:04;26.40;42.30
75931;DHT22;64609;47.052;15.462;2023-06-01T07:44:30;26.60;42.50
75931;DHT22;64609;47.052;15.462;2023-06-01T07:46:55;26.80;42.30
75931;DHT22;64609;47.052;15.462;2023-06-01T07:49:21;26.90;40.80
75931;DHT22;64609;47.052;15.462;2023-06-01T07:51:47;26.70;40.70
75931;DHT22;64609;47.052;15.462;2023-06-01T07:54:12;26.70;42.10
75931;DHT22;64609;47.052;15.462;2023-06-01T07:56:38;26.90;42.00
75931;DHT22;64609;47.052;15.462;2023-06-01T07:59:05;26.90;40.30
75931;DHT22;64609;47.052;15.462;2023-06-01T08:01:31;27.00;40.70
75931;DHT22;64609;47.052;15.462;2023-06-01T08:03:58;27.20;40.60
75931;DHT22;64609;47.052;15.462;2023-06-01T08:06:23;27.40;40.20
75931;DHT22;64609;47.052;15.462;2023-06-01T08:08:51;27.60;40.20
75931;DHT22;64609;47.052;15.462;2023-06-01T08:11:17;27.70;40.20
75931;DHT22;64609;47.052;15.462;2023-06-01T08:13:43;27.80;40.20
75931;DHT22;64609;47.052;15.462;2023-06-01T08:16:11;27.90;40.30
75931;DHT22;64609;47.052;15.462;2023-06-01T08:18:38;28.10;40.00
75931;DHT22;64609;47.052;15.462;2023-06-01T08:21:04;28.30;40.20
75931;DHT22;64609;47.052;15.462;2023-06-01T08:23:30;28.30;39.80
75931;DHT22;64609;47.052;15.462;2023-06-01T08:25:56;28.20;39.80
75931;DHT22;64609;47.052;15.462;2023-06-01T08:28:22;28.00;39.50
75931;DHT22;64609;47.052;15.462;2023-06-01T08:30:48;28.10;40.80
75931;DHT22;64609;47.052;15.462;2023-06-01T08:33:13;28.30;40.20
75931;DHT22;64609;47.052;15.462;2023-06-01T08:35:40;28.50;39.80
75931;DHT22;64609;47.052;15.462;2023-06-01T08:38:06;28.60;38.70
75931;DHT22;64609;47.052;15.462;2023-06-01T08:40:32;29.00;39.10
75931;DHT22;64609;47.052;15.462;2023-06-01T08:43:33;29.30;38.10
75931;DHT22;64609;47.052;15.462;2023-06-01T08:46:01;29.20;37.10
75931;DHT22;64609;47.052;15.462;2023-06-01T08:48:27;29.30;36.90
75931;DHT22;64609;47.052;15.462;2023-06-01T08:50:54;29.50;37.10
75931;DHT22;64609;47.052;15.462;2023-06-01T08:53:20;29.60;37.10
75931;DHT22;64609;47.052;15.462;2023-06-01T08:55:53;29.60;36.90
75931;DHT22;64609;47.052;15.462;2023-06-01T08:58:19;29.70;36.80
75931;DHT22;64609;47.052;15.462;2023-06-01T09:00:48;30.00;36.90
75931;DHT22;64609;47.052;15.462;2023-06-01T09:03:14;30.10;36.50
75931;DHT22;64609;47.052;15.462;2023-06-01T09:05:40;30.10;36.70
75931;DHT22;64609;47.052;15.462;2023-06-01T09:08:06;30.20;36.80
75931;DHT22;64609;47.052;15.462;2023-06-01T09:10:31;30.20;36.60
75931;DHT22;64609;47.052;15.462;2023-06-01T09:12:57;30.60;36.00
75931;DHT22;64609;47.052;15.462;2023-06-01T09:15:23;31.20;36.30
75931;DHT22;64609;47.052;15.462;2023-06-01T09:17:51;31.50;35.60
75931;DHT22;64609;47.052;15.462;2023-06-01T09:20:25;31.40;34.90
75931;DHT22;64609;47.052;15.462;2023-06-01T09:22:52;31.50;34.80
75931;DHT22;64609;47.052;15.462;2023-06-01T09:25:27;31.30;34.40
75931;DHT22;64609;47.052;15.462;2023-06-01T09:27:54;30.90;34.20
75931;DHT22;64609;47.052;15.462;2023-06-01T09:30:21;30.70;34.90
75931;DHT22;64609;47.052;15.462;2023-06-01T09:32:49;30.30;35.30
75931;DHT22;64609;47.052;15.462;2023-06-01T09:36:11;30.50;36.10
75931;DHT22;64609;47.052;15.462;2023-06-01T09:38:29;30.70;35.20
75931;DHT22;64609;47.052;15.462;2023-06-01T09:41:01;30.80;35.70
75931;DHT22;64609;47.052;15.462;2023-06-01T09:43:28;31.30;35.80
75931;DHT22;64609;47.052;15.462;2023-06-01T09:46:04;31.90;35.20
75931;DHT22;64609;47.052;15.462;2023-06-01T09:48:31;32.40;34.00
75931;DHT22;64609;47.052;15.462;2023-06-01T09:50:57;32.00;34.30
75931;DHT22;64609;47.052;15.462;2023-06-01T09:53:22;32.00;34.80
75931;DHT22;64609;47.052;15.462;2023-06-01T09:56:01;32.30;34.50
75931;DHT22;64609;47.052;15.462;2023-06-01T09:58:27;32.70;34.80
75931;DHT22;64609;47.052;15.462;2023-06-01T10:00:54;33.40;33.40
75931;DHT22;64609;47.052;15.462;2023-06-01T10:03:21;34.00;32.80
75931;DHT22;64609;47.052;15.462;2023-06-01T10:05:48;34.20;32.00
75931;DHT22;64609;47.052;15.462;2023-06-01T10:08:15;34.30;31.80
75931;DHT22;64609;47.052;15.462;2023-06-01T10:10:47;34.60;31.60
75931;DHT22;64609;47.052;15.462;2023-06-01T10:13:13;34.80;31.00
75931;DHT22;64609;47.052;15.462;2023-06-01T10:15:39;34.70;31.50
75931;DHT22;64609;47.052;15.462;2023-06-01T10:18:06;35.10;31.60
75931;DHT22;64609;47.052;15.462;2023-06-01T10:20:33;35.60;31.00
75931;DHT22;64609;47.052;15.462;2023-06-01T10:23:00;35.60;30.20
75931;DHT22;64609;47.052;15.462;2023-06-01T10:25:31;35.50;31.10
75931;DHT22;64609;47.052;15.462;2023-06-01T10:28:02;35.20;31.70
75931;DHT22;64609;47.052;15.462;2023-06-01T10:30:29;35.10;30.80
75931;DHT22;64609;47.052;15.462;2023-06-01T10:32:55;34.40;31.00
75931;DHT22;64609;47.052;15.462;2023-06-01T10:40:39;32.80;34.30
75931;DHT22;64609;47.052;15.462;2023-06-01T10:43:05;33.00;34.40
75931;DHT22;64609;47.052;15.462;2023-06-01T10:45:40;33.00;33.70
75931;DHT22;64609;47.052;15.462;2023-06-01T10:48:10;33.00;32.80
75931;DHT22;64609;47.052;15.462;2023-06-01T10:50:37;32.30;33.00
75931;DHT22;64609;47.052;15.462;2023-06-01T10:53:26;32.10;34.20
75931;DHT22;64609;47.052;15.462;2023-06-01T10:58:42;32.30;32.00
75931;DHT22;64609;47.052;15.462;2023-06-01T11:01:08;32.30;32.80
75931;DHT22;64609;47.052;15.462;2023-06-01T11:03:48;32.60;32.50
75931;DHT22;64609;47.052;15.462;2023-06-01T11:09:02;33.80;30.70
75931;DHT22;64609;47.052;15.462;2023-06-01T11:14:22;33.80;32.30
75931;DHT22;64609;47.052;15.462;2023-06-01T11:16:52;33.60;30.50
75931;DHT22;64609;47.052;15.462;2023-06-01T11:19:26;33.20;31.50
75931;DHT22;64609;47.052;15.462;2023-06-01T11:21:57;32.90;31.50
75931;DHT22;64609;47.052;15.462;2023-06-01T11:24:35;32.70;31.80
75931;DHT22;64609;47.052;15.462;2023-06-01T11:27:10;32.60;32.10
75931;DHT22;64609;47.052;15.462;2023-06-01T11:29:37;32.90;32.30
75931;DHT22;64609;47.052;15.462;2023-06-01T11:32:04;33.10;31.30
75931;DHT22;64609;47.052;15.462;2023-06-01T11:34:37;32.70;32.00
75931;DHT22;64609;47.052;15.462;2023-06-01T11:37:05;32.90;32.30
75931;DHT22;64609;47.052;15.462;2023-06-01T11:39:31;33.20;32.10
75931;DHT22;64609;47.052;15.462;2023-06-01T11:42:07;33.40;31.00
75931;DHT22;64609;47.052;15.462;2023-06-01T11:44:34;33.60;30.50
75931;DHT22;64609;47.052;15.462;2023-06-01T11:47:00;33.40;30.40
75931;DHT22;64609;47.052;15.462;2023-06-01T11:49:26;33.50;30.80
75931;DHT22;64609;47.052;15.462;2023-06-01T11:51:53;33.70;31.70
75931;DHT22;64609;47.052;15.462;2023-06-01T11:54:27;33.50;31.30
75931;DHT22;64609;47.052;15.462;2023-06-01T11:56:55;33.40;31.50
75931;DHT22;64609;47.052;15.462;2023-06-01T11:59:21;33.60;31.10
75931;DHT22;64609;47.052;15.462;2023-06-01T12:01:47;33.70;30.70
75931;DHT22;64609;47.052;15.462;2023-06-01T12:04:15;33.70;30.10
75931;DHT22;64609;47.052;15.462;2023-06-01T12:06:41;33.80;31.50
75931;DHT22;64609;47.052;15.462;2023-06-01T12:09:08;33.80;30.90
75931;DHT22;64609;47.052;15.462;2023-06-01T12:11:34;33.70;31.20
75931;DHT22;64609;47.052;15.462;2023-06-01T12:14:01;33.40;30.30
75931;DHT22;64609;47.052;15.462;2023-06-01T12:16:59;33.10;31.40
75931;DHT22;64609;47.052;15.462;2023-06-01T12:19:26;32.90;31.10
75931;DHT22;64609;47.052;15.462;2023-06-01T12:21:55;32.80;31.30
75931;DHT22;64609;47.052;15.462;2023-06-01T12:24:31;32.50;31.70
75931;DHT22;64609;47.052;15.462;2023-06-01T12:27:02;32.40;32.30
75931;DHT22;64609;47.052;15.462;2023-06-01T12:29:47;32.40;32.40
75931;DHT22;64609;47.052;15.462;2023-06-01T12:32:14;32.50;31.70
75931;DHT22;64609;47.052;15.462;2023-06-01T12:34:44;32.50;32.10
75931;DHT22;64609;47.052;15.462;2023-06-01T12:37:19;32.50;31.80
75931;DHT22;64609;47.052;15.462;2023-06-01T12:39:52;32.50;32.20
75931;DHT22;64609;47.052;15.462;2023-06-01T12:42:19;32.60;33.00
75931;DHT22;64609;47.052;15.462;2023-06-01T12:44:58;32.80;32.90
75931;DHT22;64609;47.052;15.462;2023-06-01T12:47:24;32.70;32.50
75931;DHT22;64609;47.052;15.462;2023-06-01T12:50:10;32.80;32.60
75931;DHT22;64609;47.052;15.462;2023-06-01T12:52:36;32.40;31.60
75931;DHT22;64609;47.052;15.462;2023-06-01T12:55:02;32.30;32.60
75931;DHT22;64609;47.052;15.462;2023-06-01T12:57:30;32.10;32.70
75931;DHT22;64609;47.052;15.462;2023-06-01T12:59:56;31.80;32.50
75931;DHT22;64609;47.052;15.462;2023-06-01T13:02:22;31.60;33.00
75931;DHT22;64609;47.052;15.462;2023-06-01T13:04:48;31.70;32.80
75931;DHT22;64609;47.052;15.462;2023-06-01T13:07:15;31.70;32.70
75931;DHT22;64609;47.052;15.462;2023-06-01T13:09:41;31.80;32.50
75931;DHT22;64609;47.052;15.462;2023-06-01T13:12:07;31.60;32.20
75931;DHT22;64609;47.052;15.462;2023-06-01T13:14:34;31.60;33.20
75931;DHT22;64609;47.052;15.462;2023-06-01T13:17:00;31.70;33.30
75931;DHT22;64609;47.052;15.462;2023-06-01T13:19:26;31.60;32.90
75931;DHT22;64609;47.052;15.462;2023-06-01T13:21:52;31.40;32.70
75931;DHT22;64609;47.052;15.462;2023-06-01T13:24:17;31.40;32.00
75931;DHT22;64609;47.052;15.462;2023-06-01T13:26:43;31.50;32.00
75931;DHT22;64609;47.052;15.462;2023-06-01T13:29:09;31.70;31.80
75931;DHT22;64609;47.052;15.462;2023-06-01T13:31:35;31.80;31.60
75931;DHT22;64609;47.052;15.462;2023-06-01T13:34:02;31.60;32.30
75931;DHT22;64609;47.052;15.462;2023-06-01T13:36:29;31.60;33.10
75931;DHT22;64609;47.052;15.462;2023-06-01T13:38:55;31.60;32.60
75931;DHT22;64609;47.052;15.462;2023-06-01T13:41:21;31.80;32.40
75931;DHT22;64609;47.052;15.462;2023-06-01T13:43:47;31.70;31.90
75931;DHT22;64609;47.052;15.462;2023-06-01T13:46:13;31.60;32.50
75931;DHT22;64609;47.052;15.462;2023-06-01T13:48:39;31.80;33.10
75931;DHT22;64609;47.052;15.462;2023-06-01T13:51:05;32.00;32.20
75931;DHT22;64609;47.052;15.462;2023-06-01T13:53:31;31.90;31.70
75931;DHT22;64609;47.052;15.462;2023-06-01T13:55:59;31.80;32.50
75931;DHT22;64609;47.052;15.462;2023-06-01T13:58:24;31.90;32.80
75931;DHT22;64609;47.052;15.462;2023-06-01T14:00:50;32.00;32.10
75931;DHT22;64609;47.052;15.462;2023-06-01T14:03:16;32.00;32.00
75931;DHT22;64609;47.052;15.462;2023-06-01T14:05:42;32.00;32.30
75931;DHT22;64609;47.052;15.462;2023-06-01T14:08:07;32.00;32.50
75931;DHT22;64609;47.052;15.462;2023-06-01T14:10:34;31.80;32.90
75931;DHT22;64609;47.052;15.462;2023-06-01T14:13:00;31.70;32.60
75931;DHT22;64609;47.052;15.462;2023-06-01T14:15:26;31.60;32.60
75931;DHT22;64609;47.052;15.462;2023-06-01T14:17:52;31.60;32.60
75931;DHT22;64609;47.052;15.462;2023-06-01T14:20:17;31.70;33.60
75931;DHT22;64609;47.052;15.462;2023-06-01T14:22:43;31.70;33.30
75931;DHT22;64609;47.052;15.462;2023-06-01T14:25:09;31.70;33.60
75931;DHT22;64609;47.052;15.462;2023-06-01T14:27:35;31.70;34.10
75931;DHT22;64609;47.052;15.462;2023-06-01T14:30:06;31.80;33.60
75931;DHT22;64609;47.052;15.462;2023-06-01T14:32:32;31.80;33.60
75931;DHT22;64609;47.052;15.462;2023-06-01T14:34:58;31.80;33.00
75931;DHT22;64609;47.052;15.462;2023-06-01T14:37:23;31.90;33.30
75931;DHT22;64609;47.052;15.462;2023-06-01T14:39:49;31.70;33.40
75931;DHT22;64609;47.052;15.462;2023-06-01T14:42:17;31.70;33.00
75931;DHT22;64609;47.052;15.462;2023-06-01T14:44:44;31.70;32.90
75931;DHT22;64609;47.052;15.462;2023-06-01T14:47:10;31.80;32.80
75931;DHT22;64609;47.052;15.462;2023-06-01T14:49:39;31.70;33.30
75931;DHT22;64609;47.052;15.462;2023-06-01T14:52:05;31.70;33.40
75931;DHT22;64609;47.052;15.462;2023-06-01T14:54:31;31.70;33.20
75931;DHT22;64609;47.052;15.462;2023-06-01T14:56:56;31.70;32.70
75931;DHT22;64609;47.052;15.462;2023-06-01T14:59:22;31.70;32.80
75931;DHT22;64609;47.052;15.462;2023-06-01T15:01:49;31.70;32.90
75931;DHT22;64609;47.052;15.462;2023-06-01T15:04:15;31.70;32.90
75931;DHT22;64609;47.052;15.462;2023-06-01T15:06:40;31.80;32.90
75931;DHT22;64609;47.052;15.462;2023-06-01T15:09:06;31.60;32.20
75931;DHT22;64609;47.052;15.462;2023-06-01T15:11:32;31.50;32.80
75931;DHT22;64609;47.052;15.462;2023-06-01T15:13:58;31.50;33.10
75931;DHT22;64609;47.052;15.462;2023-06-01T15:16:23;31.40;33.20
75931;DHT22;64609;47.052;15.462;2023-06-01T15:18:50;31.30;33.30
75931;DHT22;64609;47.052;15.462;2023-06-01T15:21:16;31.20;33.50
75931;DHT22;64609;47.052;15.462;2023-06-01T15:23:41;31.20;33.10
75931;DHT22;64609;47.052;15.462;2023-06-01T15:26:07;31.00;33.30
75931;DHT22;64609;47.052;15.462;2023-06-01T15:28:33;30.80;33.60
75931;DHT22;64609;47.052;15.462;2023-06-01T15:30:58;30.60;33.40
75931;DHT22;64609;47.052;15.462;2023-06-01T15:33:24;30.40;33.20
75931;DHT22;64609;47.052;15.462;2023-06-01T15:35:49;30.40;33.70
75931;DHT22;64609;47.052;15.462;2023-06-01T15:38:15;30.50;33.90
75931;DHT22;64609;47.052;15.462;2023-06-01T15:40:41;30.40;33.70